Time;durP1;ratioP1;P1;durP2;ratioP2;P2;SDS_P1;SDS_P2;PMS_P1;PMS_P2;Temp;Humidity;BMP_temperature;BMP_pressure;BME280_temperature;BME280_humidity;BME280_pressure;Samples;Min_cycle;Max_cycle;Signal;HPM_P1;HPM_P2
2024/01/04 00:00:25;;;;;;;1.85;1.40;;;11.60;82.50;;;;;;5019320;28;20060;-79
2024/01/04 00:02:53;;;;;;;1.67;1.35;;;11.60;82.50;;;;;;5035769;28;20432;-78
2024/01/04 00:05:19;;;;;;;1.63;1.38;;;11.60;82.50;;;;;;5036256;28;20033;-78
2024/01/04 00:07:45;;;;;;;2.00;1.52;;;11.60;82.50;;;;;;5034625;28;20039;-79
2024/01/04 00:10:13;;;;;;;1.63;1.40;;;11.60;82.50;;;;;;5051756;28;20029;-79
2024/01/04 00:12:39;;;;;;;1.83;1.48;;;11.60;82.50;;;;;;5051921;28;20029;-78
2024/01/04 00:15:06;;;;;;;2.05;1.60;;;11.60;82.50;;;;;;5035055;28;20025;-79
2024/01/04 00:17:31;;;;;;;2.67;1.60;;;11.60;82.50;;;;;;5035536;28;20071;-78
2024/01/04 00:19:57;;;;;;;2.08;1.60;;;11.60;82.50;;;;;;5035083;28;20029;-79
2024/01/04 00:22:23;;;;;;;2.28;1.70;;;11.60;82.50;;;;;;5035101;28;20021;-78
2024/01/04 00:24:49;;;;;;;2.15;1.58;;;11.60;82.50;;;;;;5019053;28;20040;-78
2024/01/04 00:27:15;;;;;;;3.08;1.70;;;11.60;82.50;;;;;;5035203;28;20446;-79
2024/01/04 00:29:42;;;;;;;1.75;1.52;;;11.50;83.10;;;;;;5018759;28;20056;-78
2024/01/04 00:32:09;;;;;;;2.28;1.58;;;11.60;82.50;;;;;;5051560;28;20039;-79
2024/01/04 00:34:35;;;;;;;2.70;1.92;;;11.60;82.50;;;;;;5018783;28;20037;-80
2024/01/04 00:37:01;;;;;;;2.47;1.58;;;11.50;82.50;;;;;;5035209;28;20040;-78
2024/01/04 00:39:26;;;;;;;2.83;1.80;;;11.50;82.50;;;;;;5035168;28;20025;-78
2024/01/04 00:41:53;;;;;;;2.05;1.80;;;11.50;82.50;;;;;;5035031;28;20029;-78
2024/01/04 00:44:19;;;;;;;2.58;1.90;;;11.50;82.50;;;;;;5035230;28;20025;-78
2024/01/04 00:46:45;;;;;;;2.13;1.92;;;11.60;82.60;;;;;;5035284;28;20025;-78
2024/01/04 00:49:11;;;;;;;2.53;1.83;;;11.50;82.50;;;;;;5018886;28;20539;-78
2024/01/04 00:51:37;;;;;;;3.05;1.67;;;11.60;82.60;;;;;;5034673;28;20055;-78
2024/01/04 00:54:03;;;;;;;3.70;1.70;;;11.50;82.50;;;;;;5018419;28;20033;-79
2024/01/04 00:56:36;;;;;;;2.05;1.75;;;11.50;82.50;;;;;;5018463;28;20399;-78
2024/01/04 00:59:03;;;;;;;2.03;1.80;;;11.50;82.60;;;;;;5035052;28;20116;-78
2024/01/04 01:01:30;;;;;;;2.63;1.92;;;11.50;82.50;;;;;;5051115;28;20073;-78
2024/01/04 01:03:57;;;;;;;2.75;1.80;;;11.50;82.50;;;;;;5052682;28;20520;-80
2024/01/04 01:06:23;;;;;;;1.92;1.65;;;11.50;82.50;;;;;;5018532;28;20036;-78
2024/01/04 01:08:49;;;;;;;2.75;1.40;;;11.50;82.50;;;;;;5018362;28;20119;-78
2024/01/04 01:11:14;;;;;;;2.13;1.70;;;11.50;82.50;;;;;;5052500;28;20029;-78
2024/01/04 01:13:40;;;;;;;2.60;1.80;;;11.50;82.60;;;;;;5018143;28;20063;-78
2024/01/04 01:16:06;;;;;;;2.70;1.60;;;11.50;82.60;;;;;;5035472;28;20037;-78
2024/01/04 01:18:32;;;;;;;1.70;1.60;;;11.50;82.60;;;;;;5035473;28;20033;-79
2024/01/04 01:21:01;;;;;;;1.83;1.67;;;11.50;82.60;;;;;;5021056;28;20033;-78
2024/01/04 01:23:26;;;;;;;2.25;1.52;;;11.50;82.60;;;;;;5054925;28;20033;-78
2024/01/04 01:25:52;;;;;;;2.03;1.67;;;11.50;82.80;;;;;;5038094;28;20432;-78
2024/01/04 01:28:18;;;;;;;3.05;1.80;;;11.50;82.60;;;;;;5038745;28;20055;-79
2024/01/04 01:30:44;;;;;;;1.52;1.42;;;11.50;82.60;;;;;;5038079;28;20451;-78
2024/01/04 01:33:09;;;;;;;1.52;1.42;;;11.40;82.50;;;;;;5037827;28;20033;-78
2024/01/04 01:35:35;;;;;;;1.42;1.30;;;11.50;82.50;;;;;;5021388;28;20033;-79
2024/01/04 01:38:01;;;;;;;2.17;1.50;;;11.50;82.50;;;;;;5038196;28;20029;-79
2024/01/04 01:40:26;;;;;;;2.15;1.48;;;11.50;82.60;;;;;;5038039;28;20025;-78
2024/01/04 01:42:52;;;;;;;1.50;1.40;;;11.50;82.60;;;;;;5054932;28;20374;-78
2024/01/04 01:45:19;;;;;;;1.90;1.30;;;11.40;82.60;;;;;;5021176;28;20120;-78
2024/01/04 01:47:47;;;;;;;2.05;1.60;;;11.40;82.60;;;;;;5037625;28;20036;-78
2024/01/04 01:50:14;;;;;;;1.67;1.58;;;11.40;82.60;;;;;;5054271;28;20064;-79
2024/01/04 01:52:41;;;;;;;2.08;1.45;;;11.40;82.60;;;;;;5055287;28;20033;-78
2024/01/04 01:55:09;;;;;;;1.80;1.40;;;11.40;82.60;;;;;;5037723;28;20029;-78
2024/01/04 01:57:35;;;;;;;1.50;1.38;;;11.40;82.60;;;;;;5038277;28;20120;-79
2024/01/04 02:00:02;;;;;;;1.65;1.55;;;11.40;82.60;;;;;;5054093;28;20025;-78
2024/01/04 02:02:38;;;;;;;2.35;1.60;;;11.40;82.60;;;;;;5055302;28;20057;-79
2024/01/04 02:05:04;;;;;;;2.40;1.40;;;11.40;82.60;;;;;;5021569;28;20044;-78
2024/01/04 02:07:30;;;;;;;1.60;1.50;;;11.40;82.60;;;;;;5021723;28;20033;-78
2024/01/04 02:09:59;;;;;;;1.63;1.30;;;11.40;82.60;;;;;;5037624;28;20044;-78
2024/01/04 02:12:25;;;;;;;1.92;1.45;;;11.40;82.60;;;;;;5037137;28;20037;-79
2024/01/04 02:14:54;;;;;;;1.77;1.45;;;11.40;82.70;;;;;;5053797;28;20091;-79
2024/01/04 02:17:24;;;;;;;2.72;1.73;;;11.40;82.70;;;;;;5053833;28;20033;-78
2024/01/04 02:19:51;;;;;;;1.50;1.40;;;11.40;82.70;;;;;;5037264;28;20113;-79
2024/01/04 02:22:17;;;;;;;1.60;1.50;;;11.40;82.70;;;;;;5037803;28;20033;-79
2024/01/04 02:24:43;;;;;;;2.00;1.80;;;11.40;82.70;;;;;;5037632;28;20138;-78
2024/01/04 02:27:09;;;;;;;2.42;1.73;;;11.40;82.70;;;;;;5037215;28;20025;-78
2024/01/04 02:29:35;;;;;;;1.27;1.17;;;11.40;82.70;;;;;;5037159;28;20032;-78
2024/01/04 02:32:01;;;;;;;2.58;1.38;;;11.40;82.70;;;;;;5036323;28;20037;-79
2024/01/04 02:34:27;;;;;;;1.60;1.20;;;11.40;82.70;;;;;;5053457;28;20478;-79
2024/01/04 02:36:53;;;;;;;2.35;1.58;;;11.40;82.70;;;;;;5036581;28;20040;-79
2024/01/04 02:39:19;;;;;;;1.80;1.50;;;11.40;82.60;;;;;;5020986;28;20086;-78
2024/01/04 02:41:44;;;;;;;3.88;1.80;;;11.40;82.70;;;;;;5053735;28;20354;-79
2024/01/04 02:44:10;;;;;;;2.15;1.50;;;11.30;82.60;;;;;;5053076;28;20031;-78
2024/01/04 02:46:36;;;;;;;1.50;1.40;;;11.40;82.70;;;;;;5036833;28;20033;-79
2024/01/04 02:49:02;;;;;;;1.65;1.50;;;11.30;82.60;;;;;;5036576;28;20512;-78
2024/01/04 02:51:27;;;;;;;1.83;1.48;;;11.30;82.70;;;;;;5020030;28;20033;-78
2024/01/04 02:53:53;;;;;;;2.83;1.60;;;11.40;82.70;;;;;;5036371;28;20033;-78
2024/01/04 02:56:19;;;;;;;2.58;1.60;;;11.30;82.70;;;;;;5019991;28;20037;-78
2024/01/04 02:58:45;;;;;;;2.05;1.52;;;11.30;83.30;;;;;;5036362;28;20086;-78
2024/01/04 03:01:17;;;;;;;1.52;1.40;;;11.30;82.70;;;;;;5020181;28;20060;-78
2024/01/04 03:03:43;;;;;;;1.73;1.60;;;11.30;82.70;;;;;;5036613;28;20071;-79
2024/01/04 03:06:09;;;;;;;2.20;1.63;;;11.30;82.70;;;;;;5020576;28;20029;-78
2024/01/04 03:08:34;;;;;;;2.00;1.52;;;11.30;82.70;;;;;;5035748;28;20029;-78
2024/01/04 03:11:00;;;;;;;2.35;1.60;;;11.30;82.70;;;;;;5036224;28;20029;-79
2024/01/04 03:13:26;;;;;;;2.20;1.60;;;11.30;82.70;;;;;;5053648;28;20036;-79
2024/01/04 03:15:51;;;;;;;2.10;1.70;;;11.30;82.70;;;;;;5019906;28;20063;-78
2024/01/04 03:18:17;;;;;;;2.28;1.50;;;11.30;83.00;;;;;;5019798;28;20131;-78
2024/01/04 03:20:43;;;;;;;2.67;1.60;;;11.30;82.70;;;;;;5035929;28;20469;-78
2024/01/04 03:23:09;;;;;;;1.50;1.23;;;11.30;82.70;;;;;;5052356;28;20040;-78
2024/01/04 03:25:34;;;;;;;1.98;1.70;;;11.30;82.80;;;;;;5019476;28;20174;-78
2024/01/04 03:28:00;;;;;;;1.60;1.50;;;11.20;82.80;;;;;;5053009;28;20337;-78
2024/01/04 03:30:26;;;;;;;2.08;1.85;;;11.20;82.70;;;;;;5019085;28;20040;-78
2024/01/04 03:32:52;;;;;;;1.70;1.58;;;11.30;82.80;;;;;;5035715;28;20033;-79
2024/01/04 03:35:17;;;;;;;1.90;1.35;;;11.20;82.70;;;;;;5052532;28;20033;-78
2024/01/04 03:37:43;;;;;;;1.70;1.50;;;11.20;82.70;;;;;;5035655;28;20025;-79
2024/01/04 03:40:09;;;;;;;2.05;1.70;;;11.20;82.70;;;;;;5036487;28;20025;-78
2024/01/04 03:42:35;;;;;;;2.53;1.80;;;11.20;82.70;;;;;;5051398;28;20501;-78
2024/01/04 03:45:01;;;;;;;2.13;1.48;;;11.30;82.80;;;;;;5035429;28;20037;-79
2024/01/04 03:47:27;;;;;;;2.13;1.60;;;11.30;82.80;;;;;;5052082;28;20029;-78
2024/01/04 03:49:52;;;;;;;3.15;1.58;;;11.20;82.80;;;;;;5019229;28;20029;-78
2024/01/04 03:52:18;;;;;;;1.23;1.17;;;11.20;82.80;;;;;;5035499;28;20045;-78
2024/01/04 03:54:44;;;;;;;2.40;1.70;;;11.20;82.80;;;;;;5035640;28;20080;-79
2024/01/04 03:57:10;;;;;;;2.30;1.80;;;11.20;82.80;;;;;;5053591;28;20458;-78
2024/01/04 03:59:37;;;;;;;2.45;1.40;;;11.20;82.80;;;;;;5035386;28;20039;-78
2024/01/04 04:02:03;;;;;;;1.90;1.70;;;11.20;82.80;;;;;;5035160;28;20053;-78
2024/01/04 04:04:29;;;;;;;2.42;1.55;;;11.20;82.80;;;;;;5035261;28;20079;-78
2024/01/04 04:06:54;;;;;;;1.83;1.58;;;11.20;82.80;;;;;;5051937;28;20428;-79
2024/01/04 04:09:20;;;;;;;1.60;1.50;;;11.20;82.80;;;;;;5035079;28;20393;-78
2024/01/04 04:11:48;;;;;;;2.53;1.70;;;11.20;82.80;;;;;;5035697;28;20029;-79
2024/01/04 04:14:15;;;;;;;2.50;1.83;;;11.20;82.80;;;;;;5052818;28;20057;-78
2024/01/04 04:16:41;;;;;;;2.00;1.52;;;11.20;82.90;;;;;;5052769;28;20025;-79
2024/01/04 04:19:08;;;;;;;1.50;1.40;;;11.20;82.80;;;;;;5035196;28;20079;-78
2024/01/04 04:21:33;;;;;;;1.63;1.52;;;11.20;82.90;;;;;;5019848;28;20041;-79
2024/01/04 04:23:59;;;;;;;1.83;1.50;;;11.20;82.80;;;;;;5051905;28;20056;-78
2024/01/04 04:26:25;;;;;;;1.58;1.48;;;11.20;82.90;;;;;;5051816;28;20409;-77
2024/01/04 04:28:51;;;;;;;2.28;1.67;;;11.10;82.80;;;;;;5051685;28;20029;-77
2024/01/04 04:31:18;;;;;;;2.85;1.67;;;11.10;82.80;;;;;;5052114;28;20522;-79
2024/01/04 04:33:46;;;;;;;2.28;1.70;;;11.10;82.80;;;;;;5051697;28;20462;-78
2024/01/04 04:36:11;;;;;;;1.70;1.60;;;11.10;82.90;;;;;;5035151;28;20037;-79
2024/01/04 04:38:37;;;;;;;2.35;1.67;;;11.10;82.90;;;;;;5051718;28;20039;-78
2024/01/04 04:41:05;;;;;;;1.58;1.48;;;11.10;82.90;;;;;;5035170;28;20061;-78
2024/01/04 04:43:35;;;;;;;2.10;1.58;;;11.20;83.00;;;;;;5051592;28;20028;-78
2024/01/04 04:46:02;;;;;;;2.88;1.83;;;11.10;82.90;;;;;;5035298;28;20488;-78
2024/01/04 04:48:28;;;;;;;1.80;1.60;;;11.10;82.90;;;;;;5051754;28;20021;-79
2024/01/04 04:50:54;;;;;;;2.58;1.60;;;11.20;82.90;;;;;;5035232;28;20439;-78
2024/01/04 04:53:22;;;;;;;2.17;1.67;;;11.10;82.90;;;;;;5052441;28;20037;-78
2024/01/04 04:55:48;;;;;;;2.30;1.50;;;11.10;82.90;;;;;;5039120;28;20611;-78
2024/01/04 04:58:14;;;;;;;1.75;1.52;;;11.10;82.90;;;;;;5022531;28;20049;-78
2024/01/04 05:00:40;;;;;;;2.33;1.63;;;11.10;82.90;;;;;;5022358;28;20062;-78
2024/01/04 05:03:06;;;;;;;2.67;1.50;;;11.10;83.00;;;;;;5038786;28;20057;-79
2024/01/04 05:05:33;;;;;;;2.05;1.50;;;11.10;82.90;;;;;;5022944;28;20065;-79
2024/01/04 05:07:59;;;;;;;1.50;1.40;;;11.10;82.90;;;;;;5056117;28;20025;-78
2024/01/04 05:10:24;;;;;;;1.88;1.50;;;11.10;82.90;;;;;;5038695;28;20029;-77
2024/01/04 05:12:51;;;;;;;1.52;1.42;;;11.10;82.90;;;;;;5038612;28;20370;-78
2024/01/04 05:15:17;;;;;;;2.17;1.70;;;11.10;82.90;;;;;;5055162;28;20090;-78
2024/01/04 05:17:43;;;;;;;1.92;1.50;;;11.10;82.90;;;;;;5055813;28;20033;-78
2024/01/04 05:20:09;;;;;;;1.58;1.48;;;11.10;82.90;;;;;;5038215;28;20033;-79
2024/01/04 05:22:35;;;;;;;1.95;1.60;;;11.10;82.90;;;;;;5038841;28;20405;-78
2024/01/04 05:25:00;;;;;;;1.83;1.50;;;11.10;83.00;;;;;;5021920;28;20482;-78
2024/01/04 05:27:26;;;;;;;1.92;1.67;;;11.10;83.00;;;;;;5054713;28;20025;-78
2024/01/04 05:29:54;;;;;;;1.70;1.58;;;11.10;82.90;;;;;;5021610;28;20037;-78
2024/01/04 05:32:20;;;;;;;2.50;1.60;;;11.10;82.90;;;;;;5054951;28;20374;-78
2024/01/04 05:34:45;;;;;;;1.73;1.60;;;11.10;83.00;;;;;;5038067;28;20083;-78
2024/01/04 05:37:11;;;;;;;1.92;1.55;;;11.10;83.00;;;;;;5038645;28;20021;-78
2024/01/04 05:39:37;;;;;;;2.03;1.50;;;11.10;82.90;;;;;;5037612;28;20040;-78
2024/01/04 05:42:03;;;;;;;2.80;1.65;;;11.10;82.90;;;;;;5054063;28;20061;-78
2024/01/04 05:44:28;;;;;;;2.05;1.63;;;11.10;83.00;;;;;;5037970;28;20060;-78
2024/01/04 05:46:54;;;;;;;2.50;1.70;;;11.10;83.00;;;;;;5021163;28;20408;-78
2024/01/04 05:49:20;;;;;;;2.15;1.70;;;11.10;83.00;;;;;;5037841;28;20025;-78
2024/01/04 05:51:46;;;;;;;1.73;1.48;;;11.10;83.00;;;;;;5054763;28;20112;-78
2024/01/04 05:54:11;;;;;;;1.75;1.40;;;11.00;82.90;;;;;;5037540;28;20370;-77
2024/01/04 05:56:37;;;;;;;1.65;1.55;;;11.10;83.60;;;;;;5054293;28;20036;-78
2024/01/04 05:59:03;;;;;;;2.13;1.75;;;11.10;83.00;;;;;;5037423;28;20036;-78
2024/01/04 06:01:29;;;;;;;1.90;1.67;;;11.00;83.00;;;;;;5053585;28;20500;-79
2024/01/04 06:03:54;;;;;;;2.03;1.70;;;11.10;83.00;;;;;;5020488;28;20401;-78
2024/01/04 06:06:20;;;;;;;1.65;1.45;;;11.10;83.00;;;;;;5053069;28;20120;-78
2024/01/04 06:08:46;;;;;;;1.92;1.52;;;11.00;82.90;;;;;;5037489;28;20519;-79
2024/01/04 06:11:12;;;;;;;2.58;1.90;;;11.10;83.00;;;;;;5020620;28;20033;-78
2024/01/04 06:13:38;;;;;;;1.58;1.48;;;11.00;83.00;;;;;;5053415;28;20029;-78
2024/01/04 06:16:10;;;;;;;1.80;1.50;;;11.00;83.00;;;;;;5020698;28;20133;-78
2024/01/04 06:18:36;;;;;;;2.55;1.63;;;11.00;83.00;;;;;;5020804;28;20075;-78
2024/01/04 06:21:02;;;;;;;2.45;1.70;;;11.00;83.00;;;;;;5053888;28;20055;-78
2024/01/04 06:23:28;;;;;;;2.00;1.73;;;11.00;83.00;;;;;;5020424;28;20062;-77
2024/01/04 06:25:55;;;;;;;2.33;1.50;;;11.00;83.00;;;;;;5037130;28;20071;-78
2024/01/04 06:28:22;;;;;;;1.52;1.40;;;11.00;83.60;;;;;;5054923;28;20029;-77
2024/01/04 06:30:47;;;;;;;1.75;1.63;;;11.00;83.00;;;;;;5037115;28;20021;-77
2024/01/04 06:33:14;;;;;;;1.92;1.60;;;11.00;83.00;;;;;;5020113;28;20098;-77
2024/01/04 06:35:41;;;;;;;1.50;1.40;;;11.00;83.00;;;;;;5036715;28;20036;-77
2024/01/04 06:38:09;;;;;;;2.55;1.70;;;11.00;83.00;;;;;;5036692;28;20041;-77
2024/01/04 06:40:36;;;;;;;1.70;1.60;;;11.00;83.00;;;;;;5053200;28;20061;-78
2024/01/04 06:43:03;;;;;;;1.60;1.50;;;11.00;83.00;;;;;;5037357;28;20114;-78
2024/01/04 06:45:32;;;;;;;1.63;1.50;;;11.00;83.00;;;;;;5036478;28;20082;-78
2024/01/04 06:47:58;;;;;;;2.28;1.60;;;11.00;83.10;;;;;;5037066;28;20032;-78
2024/01/04 06:50:23;;;;;;;1.92;1.70;;;11.00;83.00;;;;;;5036805;28;20037;-77
2024/01/04 06:52:49;;;;;;;2.08;1.63;;;11.00;83.00;;;;;;5019787;28;20385;-78
2024/01/04 06:55:15;;;;;;;1.65;1.55;;;11.00;83.10;;;;;;5036284;28;20045;-78
2024/01/04 06:57:42;;;;;;;1.60;1.50;;;11.00;83.10;;;;;;5036170;28;20025;-78
2024/01/04 07:00:08;;;;;;;1.95;1.77;;;11.00;83.10;;;;;;5052665;28;20029;-79
2024/01/04 07:02:35;;;;;;;1.63;1.42;;;11.00;83.10;;;;;;5036034;28;20045;-78
2024/01/04 07:05:10;;;;;;;1.67;1.40;;;11.00;83.10;;;;;;5036222;28;20033;-78
2024/01/04 07:07:36;;;;;;;2.25;1.63;;;10.90;83.10;;;;;;5020670;28;20036;-78
2024/01/04 07:10:02;;;;;;;1.70;1.60;;;11.00;83.70;;;;;;5036020;28;20043;-78
2024/01/04 07:12:28;;;;;;;1.65;1.55;;;10.90;83.10;;;;;;5035880;28;20032;-77
2024/01/04 07:14:55;;;;;;;2.13;1.60;;;10.90;83.10;;;;;;5052506;28;20033;-78
2024/01/04 07:17:23;;;;;;;2.03;1.70;;;11.00;83.10;;;;;;5052790;28;20075;-78
2024/01/04 07:19:49;;;;;;;2.40;1.60;;;11.00;83.10;;;;;;5052324;28;20037;-77
2024/01/04 07:22:19;;;;;;;1.50;1.40;;;10.90;83.00;;;;;;5036106;28;20378;-77
2024/01/04 07:24:45;;;;;;;2.00;1.60;;;10.90;83.10;;;;;;5020246;28;20462;-77
2024/01/04 07:27:11;;;;;;;1.55;1.40;;;10.90;83.00;;;;;;5052358;28;20029;-78
2024/01/04 07:29:37;;;;;;;1.85;1.60;;;10.90;83.00;;;;;;5052481;28;20032;-78
2024/01/04 07:32:03;;;;;;;2.00;1.58;;;10.90;83.10;;;;;;5036048;28;20493;-78
2024/01/04 07:34:32;;;;;;;1.73;1.55;;;10.90;83.10;;;;;;5053324;28;20037;-79
2024/01/04 07:36:58;;;;;;;1.65;1.48;;;11.00;83.10;;;;;;5052158;28;20029;-78
2024/01/04 07:39:25;;;;;;;1.80;1.45;;;10.90;83.10;;;;;;5035829;28;20155;-78
2024/01/04 07:41:51;;;;;;;5.55;1.85;;;10.90;83.10;;;;;;5052032;28;20078;-78
2024/01/04 07:44:16;;;;;;;2.88;1.55;;;10.90;83.10;;;;;;5035257;28;20037;-78
2024/01/04 07:46:42;;;;;;;1.70;1.40;;;10.90;83.10;;;;;;5035671;28;20191;-78
2024/01/04 07:49:08;;;;;;;1.65;1.55;;;10.90;83.10;;;;;;5019375;28;20063;-77
2024/01/04 07:51:34;;;;;;;1.50;1.40;;;10.90;83.10;;;;;;5035462;28;20033;-78
2024/01/04 07:54:00;;;;;;;1.50;1.40;;;10.90;83.10;;;;;;5035009;28;20039;-78
2024/01/04 07:56:26;;;;;;;1.60;1.50;;;10.90;83.10;;;;;;5052183;28;20037;-78
2024/01/04 07:58:52;;;;;;;1.65;1.38;;;10.90;83.10;;;;;;5035468;28;20399;-77
2024/01/04 08:01:17;;;;;;;1.42;1.33;;;10.90;83.10;;;;;;5018684;28;20029;-77
2024/01/04 08:03:43;;;;;;;1.75;1.50;;;10.90;83.10;;;;;;5034187;28;20065;-77
2024/01/04 08:06:09;;;;;;;1.95;1.48;;;10.90;83.10;;;;;;5051378;28;20068;-77
2024/01/04 08:08:35;;;;;;;1.45;1.33;;;10.90;83.10;;;;;;5035225;28;20044;-79
2024/01/04 08:11:02;;;;;;;2.13;1.77;;;10.90;83.10;;;;;;5050855;28;20110;-78
2024/01/04 08:13:28;;;;;;;1.70;1.60;;;10.90;83.10;;;;;;5018387;28;20033;-77
2024/01/04 08:15:54;;;;;;;1.40;1.30;;;10.90;83.10;;;;;;5051318;28;20074;-78
2024/01/04 08:18:21;;;;;;;1.70;1.60;;;10.90;83.10;;;;;;5035221;28;20033;-77
2024/01/04 08:20:50;;;;;;;2.20;1.65;;;10.90;83.10;;;;;;5018554;28;20466;-78
2024/01/04 08:23:15;;;;;;;2.03;1.70;;;10.90;83.10;;;;;;5018520;28;20091;-77
2024/01/04 08:25:41;;;;;;;1.60;1.50;;;10.90;83.10;;;;;;5035775;28;20458;-77
2024/01/04 08:28:10;;;;;;;1.88;1.45;;;10.90;83.10;;;;;;5051443;28;20519;-78
2024/01/04 08:30:36;;;;;;;1.67;1.55;;;10.90;83.10;;;;;;5038900;28;20488;-77
2024/01/04 08:33:02;;;;;;;1.90;1.50;;;10.90;83.70;;;;;;5054986;28;20040;-77
2024/01/04 08:35:28;;;;;;;1.58;1.48;;;10.90;83.10;;;;;;5055435;28;20119;-77
2024/01/04 08:37:54;;;;;;;1.98;1.60;;;10.90;83.10;;;;;;5055666;28;20428;-77
2024/01/04 08:40:20;;;;;;;1.60;1.50;;;10.80;83.70;;;;;;5022465;28;20039;-77
2024/01/04 08:42:46;;;;;;;1.77;1.60;;;10.80;83.10;;;;;;5055537;28;20128;-77
2024/01/04 08:45:12;;;;;;;2.28;1.65;;;10.90;83.10;;;;;;5038999;28;20156;-77
2024/01/04 08:47:38;;;;;;;1.60;1.50;;;10.80;83.10;;;;;;5055478;28;20472;-77
2024/01/04 08:50:05;;;;;;;1.65;1.55;;;10.90;83.20;;;;;;5022158;28;20032;-78
2024/01/04 08:52:31;;;;;;;1.70;1.60;;;10.90;83.20;;;;;;5055560;28;20104;-75
2024/01/04 08:54:58;;;;;;;2.03;1.58;;;10.80;83.10;;;;;;5054952;28;20025;-77
2024/01/04 08:57:24;;;;;;;1.77;1.50;;;10.80;83.10;;;;;;5055143;28;20040;-78
2024/01/04 08:59:50;;;;;;;1.90;1.70;;;10.80;83.10;;;;;;5038322;28;20114;-77
2024/01/04 09:02:16;;;;;;;2.85;1.90;;;10.80;83.10;;;;;;5038283;28;20052;-78
2024/01/04 09:04:41;;;;;;;1.92;1.40;;;10.80;83.10;;;;;;5039161;28;20094;-77
2024/01/04 09:07:08;;;;;;;2.17;1.67;;;10.80;83.10;;;;;;5022017;28;20420;-77
2024/01/04 09:09:37;;;;;;;1.80;1.70;;;10.90;83.20;;;;;;5022234;28;20033;-77
2024/01/04 09:12:03;;;;;;;1.60;1.50;;;10.80;83.10;;;;;;5038416;28;20056;-77
2024/01/04 09:14:30;;;;;;;1.77;1.60;;;10.80;83.10;;;;;;5038510;28;20037;-77
2024/01/04 09:16:56;;;;;;;1.65;1.55;;;10.80;83.10;;;;;;5021769;28;20033;-77
2024/01/04 09:19:21;;;;;;;2.00;1.75;;;10.80;83.10;;;;;;5021546;28;20032;-77
2024/01/04 09:21:49;;;;;;;1.65;1.55;;;10.80;83.10;;;;;;5055716;28;20025;-77
2024/01/04 09:24:17;;;;;;;2.00;1.80;;;10.80;83.10;;;;;;5038832;28;20037;-77
2024/01/04 09:26:44;;;;;;;1.83;1.52;;;10.80;83.10;;;;;;5054798;28;20036;-81
2024/01/04 09:29:11;;;;;;;1.70;1.60;;;10.80;83.20;;;;;;5021671;28;20025;-77
2024/01/04 09:31:37;;;;;;;2.20;1.67;;;10.80;83.20;;;;;;5037796;28;20474;-77
2024/01/04 09:34:03;;;;;;;2.20;1.75;;;10.80;83.10;;;;;;5038191;28;20048;-77
2024/01/04 09:36:30;;;;;;;1.60;1.50;;;10.80;83.10;;;;;;5037963;28;20061;-77
2024/01/04 09:38:55;;;;;;;2.10;1.80;;;10.80;83.20;;;;;;5054403;28;20033;-78
2024/01/04 09:41:32;;;;;;;2.13;1.80;;;10.80;83.20;;;;;;5020275;28;20056;-77
2024/01/04 09:44:06;;;;;;;2.10;1.60;;;10.80;83.30;;;;;;5021402;28;20037;-78
2024/01/04 09:46:34;;;;;;;1.98;1.75;;;10.80;83.20;;;;;;5037756;28;20112;-78
2024/01/04 09:49:00;;;;;;;2.47;1.73;;;10.80;83.30;;;;;;5054187;28;20035;-77
2024/01/04 09:51:33;;;;;;;1.67;1.48;;;10.80;83.20;;;;;;5037419;28;20484;-78
2024/01/04 09:54:00;;;;;;;1.63;1.52;;;10.80;83.30;;;;;;5054928;28;20037;-78
2024/01/04 09:56:26;;;;;;;1.95;1.60;;;10.80;83.20;;;;;;5037255;28;20037;-78
2024/01/04 09:58:53;;;;;;;1.88;1.60;;;10.80;83.20;;;;;;5053760;28;20061;-77
2024/01/04 10:01:30;;;;;;;2.10;1.70;;;10.80;83.30;;;;;;5053808;28;20029;-78
2024/01/04 10:03:59;;;;;;;2.28;1.80;;;10.80;83.30;;;;;;5053617;28;20041;-76
2024/01/04 10:06:30;;;;;;;1.70;1.52;;;10.80;83.20;;;;;;5037115;28;20048;-77
2024/01/04 10:09:01;;;;;;;2.17;1.80;;;10.80;83.30;;;;;;5021290;28;20033;-77
2024/01/04 10:11:36;;;;;;;2.13;1.90;;;10.90;83.30;;;;;;5053322;28;20029;-78
2024/01/04 10:14:03;;;;;;;2.15;1.77;;;10.90;83.30;;;;;;5053322;28;20036;-81
2024/01/04 10:16:30;;;;;;;1.90;1.63;;;10.80;83.20;;;;;;5020545;28;20378;-76
2024/01/04 10:19:00;;;;;;;3.47;1.80;;;10.80;83.20;;;;;;5053621;28;20025;-78
2024/01/04 10:21:34;;;;;;;1.63;1.50;;;10.80;83.30;;;;;;5037063;28;20029;-78
2024/01/04 10:24:00;;;;;;;1.98;1.70;;;10.90;83.30;;;;;;5053519;28;20037;-78
2024/01/04 10:26:27;;;;;;;1.88;1.58;;;10.90;83.20;;;;;;5053162;28;20075;-77
2024/01/04 10:28:59;;;;;;;2.38;1.85;;;10.90;83.20;;;;;;5036657;28;20078;-78
2024/01/04 10:31:28;;;;;;;2.45;1.80;;;10.90;83.30;;;;;;5020368;28;20478;-78
2024/01/04 10:33:58;;;;;;;1.90;1.70;;;10.90;83.30;;;;;;5052966;28;20048;-78
2024/01/04 10:36:28;;;;;;;1.70;1.60;;;10.90;83.30;;;;;;5036488;28;20043;-77
2024/01/04 10:38:58;;;;;;;1.90;1.60;;;10.90;83.20;;;;;;5036297;28;20033;-77
2024/01/04 10:41:27;;;;;;;2.92;1.75;;;10.90;83.30;;;;;;5036702;28;20040;-78
2024/01/04 10:44:06;;;;;;;1.95;1.75;;;10.90;83.30;;;;;;5037447;28;20091;-77
2024/01/04 10:46:36;;;;;;;1.70;1.60;;;10.90;83.30;;;;;;5053475;28;20463;-78
2024/01/04 10:49:02;;;;;;;1.85;1.60;;;10.90;83.30;;;;;;5036207;28;20091;-78
2024/01/04 10:51:33;;;;;;;2.13;1.80;;;10.90;83.30;;;;;;5035696;28;20036;-78
2024/01/04 10:54:00;;;;;;;1.90;1.67;;;10.90;83.30;;;;;;5036676;28;20484;-77
2024/01/04 10:56:29;;;;;;;1.95;1.60;;;10.90;83.20;;;;;;5036291;28;20037;-77
2024/01/04 10:58:56;;;;;;;2.08;1.73;;;10.90;83.30;;;;;;5036019;28;20036;-78
2024/01/04 11:01:22;;;;;;;1.60;1.50;;;10.90;83.20;;;;;;5052207;28;20085;-78
2024/01/04 11:03:49;;;;;;;1.73;1.50;;;11.00;83.30;;;;;;5035797;28;20048;-78
2024/01/04 11:06:15;;;;;;;1.83;1.70;;;11.00;83.30;;;;;;5036121;28;20032;-78
2024/01/04 11:08:41;;;;;;;2.10;1.65;;;11.00;83.20;;;;;;5053234;28;20033;-78
2024/01/04 11:11:10;;;;;;;2.33;1.80;;;11.00;83.20;;;;;;5035997;28;20040;-78
2024/01/04 11:13:36;;;;;;;1.92;1.52;;;11.00;83.20;;;;;;5035798;28;20036;-78
2024/01/04 11:16:32;;;;;;;1.92;1.58;;;11.00;83.10;;;;;;5052513;28;20466;-77
2024/01/04 11:19:28;;;;;;;2.28;1.45;;;11.10;83.30;;;;;;5036451;28;20025;-77
2024/01/04 11:22:43;;;;;;;2.60;1.60;;;11.10;83.20;;;;;;5051302;28;20048;-75
2024/01/04 11:25:31;;;;;;;1.52;1.38;;;11.10;83.20;;;;;;5052178;28;20029;-77
2024/01/04 11:27:58;;;;;;;1.60;1.33;;;11.10;83.10;;;;;;5051880;28;20139;-77
2024/01/04 11:30:24;;;;;;;1.90;1.70;;;11.10;83.00;;;;;;5036266;28;20036;-77
2024/01/04 11:32:50;;;;;;;2.25;1.80;;;11.10;83.10;;;;;;5035272;28;20043;-78
2024/01/04 11:35:16;;;;;;;1.73;1.63;;;11.10;83.10;;;;;;5035675;28;20021;-78
2024/01/04 11:37:49;;;;;;;1.98;1.40;;;11.10;83.10;;;;;;5035638;28;20064;-77
2024/01/04 11:40:25;;;;;;;1.58;1.48;;;11.10;83.00;;;;;;5036457;28;20033;-78
2024/01/04 11:42:51;;;;;;;1.83;1.60;;;11.10;83.10;;;;;;5051900;28;20029;-78
2024/01/04 11:45:18;;;;;;;2.22;1.75;;;11.20;83.00;;;;;;5018549;28;20025;-77
2024/01/04 11:47:46;;;;;;;1.63;1.52;;;11.20;83.00;;;;;;5036086;28;20029;-77
2024/01/04 11:50:21;;;;;;;1.40;1.30;;;11.20;83.10;;;;;;5052152;28;20033;-78
2024/01/04 11:52:48;;;;;;;1.60;1.50;;;11.20;83.10;;;;;;5036771;28;20087;-79
2024/01/04 11:55:28;;;;;;;1.98;1.35;;;11.20;83.00;;;;;;5035444;28;20326;-77
2024/01/04 11:58:09;;;;;;;1.55;1.45;;;11.20;83.10;;;;;;5019640;28;20075;-79
2024/01/04 12:00:37;;;;;;;1.70;1.40;;;11.20;83.10;;;;;;5036434;28;20032;-78
2024/01/04 12:03:16;;;;;;;1.60;1.50;;;11.20;83.00;;;;;;5034139;28;20075;-78
2024/01/04 12:05:47;;;;;;;1.50;1.38;;;11.20;83.10;;;;;;5035140;28;20086;-77
2024/01/04 12:08:30;;;;;;;1.50;1.40;;;11.30;83.00;;;;;;5035849;28;20144;-76
2024/01/04 12:10:58;;;;;;;1.70;1.60;;;11.30;83.10;;;;;;5035000;28;20025;-78
2024/01/04 12:13:24;;;;;;;1.98;1.70;;;11.30;83.00;;;;;;5034531;28;20021;-77
2024/01/04 12:15:53;;;;;;;1.73;1.60;;;11.30;83.00;;;;;;5051996;28;20025;-75
2024/01/04 12:18:22;;;;;;;1.63;1.52;;;11.30;83.00;;;;;;5051406;28;20060;-77
2024/01/04 12:20:48;;;;;;;1.63;1.52;;;11.30;83.00;;;;;;5035084;28;20068;-78
2024/01/04 12:23:14;;;;;;;2.38;1.70;;;11.30;82.90;;;;;;5034803;28;20489;-76
2024/01/04 12:25:41;;;;;;;1.55;1.45;;;11.30;82.90;;;;;;5051489;28;20052;-77
2024/01/04 12:28:08;;;;;;;1.70;1.60;;;11.40;83.00;;;;;;5017606;28;20146;-76
2024/01/04 12:30:36;;;;;;;1.98;1.73;;;11.40;83.00;;;;;;5034402;28;20127;-77
2024/01/04 12:33:03;;;;;;;1.75;1.50;;;11.40;83.00;;;;;;5050532;28;20134;-78
2024/01/04 12:35:29;;;;;;;1.98;1.73;;;11.40;82.90;;;;;;5017292;28;20038;-77
2024/01/04 12:38:05;;;;;;;1.55;1.45;;;11.40;83.50;;;;;;5034071;28;20025;-77
2024/01/04 12:40:45;;;;;;;1.70;1.60;;;11.40;82.90;;;;;;5034850;28;20035;-77
2024/01/04 12:43:15;;;;;;;1.70;1.58;;;11.40;82.90;;;;;;5018434;28;20357;-77
2024/01/04 12:45:41;;;;;;;1.60;1.50;;;11.40;82.80;;;;;;5051543;28;20056;-77
2024/01/04 12:48:07;;;;;;;2.15;1.58;;;11.40;82.80;;;;;;5051403;28;20112;-76